Time;durP1;ratioP1;P1;durP2;ratioP2;P2;SDS_P1;SDS_P2;PMS_P1;PMS_P2;Temp;Humidity;BMP_temperature;BMP_pressure;BME280_temperature;BME280_humidity;BME280_pressure;Samples;Min_cycle;Max_cycle;Signal;HPM_P1;HPM_P2
2022/10/12 00:00:44;;;;;;;;;;;;;;;16.72;78.52;100505.59;5020820;28;19925;-72
2022/10/12 00:03:11;;;;;;;;;;;;;;;16.69;78.67;100500.59;5021060;28;19961;-72
2022/10/12 00:05:36;;;;;;;;;;;;;;;16.77;78.14;100500.50;5022266;28;19975;-69
2022/10/12 00:08:01;;;;;;;;;;;;;;;16.82;77.80;100503.47;5022978;28;19941;-72
2022/10/12 00:10:26;;;;;;;;;;;;;;;16.77;77.87;100497.84;5020155;28;19957;-69
2022/10/12 00:12:52;;;;;;;;;;;;;;;16.84;77.03;100496.09;5020234;28;19929;-72
2022/10/12 00:15:17;;;;;;;;;;;;;;;16.94;76.65;100503.00;5020265;28;20119;-72
2022/10/12 00:17:42;;;;;;;;;;;;;;;16.91;76.86;100498.84;5021377;28;19984;-69
2022/10/12 00:20:08;;;;;;;;;;;;;;;16.89;76.87;100503.56;5019988;28;19942;-73
2022/10/12 00:22:33;;;;;;;;;;;;;;;16.99;76.12;100503.28;5020664;28;20092;-70
2022/10/12 00:24:58;;;;;;;;;;;;;;;17.01;76.49;100501.25;5020914;28;19921;-69
2022/10/12 00:27:23;;;;;;;;;;;;;;;17.09;75.37;100488.59;5021161;28;20226;-73
2022/10/12 00:29:49;;;;;;;;;;;;;;;17.19;74.23;100502.53;5002487;28;19929;-69
2022/10/12 00:32:14;;;;;;;;;;;;;;;17.18;74.48;100503.53;5007404;28;20020;-72
2022/10/12 00:34:39;;;;;;;;;;;;;;;17.21;74.30;100497.81;5019716;28;19922;-72
2022/10/12 00:37:05;;;;;;;;;;;;;;;17.27;74.15;100500.75;5020302;28;20115;-72
2022/10/12 00:39:30;;;;;;;;;;;;;;;17.36;73.89;100503.16;5020530;28;19929;-71
2022/10/12 00:41:55;;;;;;;;;;;;;;;17.41;74.13;100506.09;5018517;28;20274;-72
2022/10/12 00:44:38;;;;;;;;;;;;;;;17.42;71.90;100499.72;5019425;28;19921;-73
2022/10/12 00:47:26;;;;;;;;;;;;;;;17.51;73.34;100506.63;5020712;28;19926;-73
2022/10/12 00:49:54;;;;;;;;;;;;;;;17.55;72.39;100507.91;5015949;28;19976;-70
2022/10/12 00:52:22;;;;;;;;;;;;;;;17.58;69.89;100504.03;5019567;28;19926;-73
2022/10/12 00:54:49;;;;;;;;;;;;;;;17.59;69.27;100499.50;5020033;28;19921;-73
2022/10/12 00:57:16;;;;;;;;;;;;;;;17.54;68.95;100497.38;5019701;28;19952;-70
2022/10/12 00:59:45;;;;;;;;;;;;;;;17.47;69.60;100505.34;5019950;28;19921;-70
2022/10/12 01:02:11;;;;;;;;;;;;;;;17.50;70.41;100509.50;5022179;28;19913;-70
2022/10/12 01:04:37;;;;;;;;;;;;;;;17.45;69.64;100496.66;5020529;28;19956;-73
2022/10/12 01:07:02;;;;;;;;;;;;;;;17.45;69.40;100503.88;5020408;28;19917;-71
2022/10/12 01:09:28;;;;;;;;;;;;;;;17.46;69.65;100501.00;5019322;28;20191;-73
2022/10/12 01:11:55;;;;;;;;;;;;;;;17.41;70.07;100506.09;5021117;28;20032;-70
2022/10/12 01:14:20;;;;;;;;;;;;;;;17.44;70.57;100504.88;5021695;28;19918;-70
2022/10/12 01:16:48;;;;;;;;;;;;;;;17.48;70.61;100496.28;5019707;28;19924;-73
2022/10/12 01:19:30;;;;;;;;;;;;;;;17.49;69.51;100500.63;5020804;28;19922;-74
2022/10/12 01:21:59;;;;;;;;;;;;;;;17.49;69.42;100505.16;5021452;28;19960;-73
2022/10/12 01:24:51;;;;;;;;;;;;;;;17.54;69.82;100508.91;5018820;28;19921;-70
2022/10/12 01:27:28;;;;;;;;;;;;;;;17.48;69.52;100498.13;5016580;28;19925;-73
2022/10/12 01:29:54;;;;;;;;;;;;;;;17.60;69.39;100503.81;5019034;28;20180;-73
2022/10/12 01:32:22;;;;;;;;;;;;;;;17.49;69.48;100497.13;5027031;28;19925;-70
2022/10/12 01:34:53;;;;;;;;;;;;;;;17.38;70.47;100497.59;5005262;28;19929;-70
2022/10/12 01:37:24;;;;;;;;;;;;;;;17.25;70.90;100495.59;5020070;28;19925;-70
2022/10/12 01:39:55;;;;;;;;;;;;;;;17.27;70.95;100496.25;5022169;28;20228;-70
2022/10/12 01:42:23;;;;;;;;;;;;;;;17.15;71.46;100508.44;5018881;28;20119;-70
2022/10/12 01:44:48;;;;;;;;;;;;;;;17.15;71.84;100509.28;5019810;28;19922;-73
2022/10/12 01:47:13;;;;;;;;;;;;;;;17.16;72.62;100516.28;5019147;28;20118;-73
2022/10/12 01:49:39;;;;;;;;;;;;;;;17.10;73.11;100516.19;5020384;28;19921;-73
2022/10/12 01:52:10;;;;;;;;;;;;;;;17.07;73.04;100514.72;5021280;28;19914;-70
2022/10/12 01:54:38;;;;;;;;;;;;;;;17.11;72.96;100523.22;5021925;28;19956;-70
2022/10/12 01:57:15;;;;;;;;;;;;;;;17.18;72.34;100521.44;5023353;28;19923;-70
2022/10/12 01:59:40;;;;;;;;;;;;;;;17.21;72.53;100519.22;5023559;28;19937;-73
2022/10/12 02:02:13;;;;;;;;;;;;;;;17.38;72.28;100519.03;5025256;28;19913;-70
2022/10/12 02:04:48;;;;;;;;;;;;;;;17.32;72.82;100520.59;5023948;28;19952;-73
2022/10/12 02:07:22;;;;;;;;;;;;;;;17.37;72.98;100520.03;5024709;28;19921;-73
2022/10/12 02:09:48;;;;;;;;;;;;;;;17.31;73.10;100518.09;5040386;28;19921;-73
2022/10/12 02:12:16;;;;;;;;;;;;;;;17.28;73.55;100507.78;5023562;28;19926;-73
2022/10/12 02:14:44;;;;;;;;;;;;;;;17.19;73.92;100517.75;5022518;28;19984;-73
2022/10/12 02:17:11;;;;;;;;;;;;;;;17.15;73.88;100514.63;5022316;28;19918;-70
2022/10/12 02:19:43;;;;;;;;;;;;;;;17.21;73.91;100521.06;5022520;28;19933;-70
2022/10/12 02:22:10;;;;;;;;;;;;;;;17.23;73.95;100525.22;5022220;28;19917;-70
2022/10/12 02:24:36;;;;;;;;;;;;;;;17.24;74.03;100518.84;5019986;28;20117;-71
2022/10/12 02:27:02;;;;;;;;;;;;;;;17.23;74.61;100519.88;5023086;28;20110;-71
2022/10/12 02:29:30;;;;;;;;;;;;;;;17.29;74.45;100525.50;5022364;28;19928;-73
2022/10/12 02:32:01;;;;;;;;;;;;;;;17.29;74.07;100528.19;5023077;28;20115;-70
2022/10/12 02:34:36;;;;;;;;;;;;;;;17.27;74.03;100524.84;5022706;28;19964;-73
2022/10/12 02:37:01;;;;;;;;;;;;;;;17.23;74.26;100519.88;5022434;28;19936;-72
2022/10/12 02:39:37;;;;;;;;;;;;;;;17.20;74.33;100519.41;5022156;28;20111;-73
2022/10/12 02:42:08;;;;;;;;;;;;;;;17.19;74.24;100521.25;5010126;28;19917;-70
2022/10/12 02:44:36;;;;;;;;;;;;;;;17.19;74.06;100526.63;5022697;28;19929;-70
2022/10/12 02:47:03;;;;;;;;;;;;;;;17.14;74.44;100523.66;5022073;28;20084;-73
2022/10/12 02:49:29;;;;;;;;;;;;;;;17.15;74.80;100519.16;5018537;28;20123;-70
2022/10/12 02:51:56;;;;;;;;;;;;;;;17.13;74.79;100516.66;5022257;28;20254;-70
2022/10/12 02:54:21;;;;;;;;;;;;;;;17.11;74.61;100529.38;5021780;28;19936;-73
2022/10/12 02:56:47;;;;;;;;;;;;;;;16.99;74.68;100527.38;5022644;28;19917;-70
2022/10/12 02:59:13;;;;;;;;;;;;;;;16.90;75.12;100522.09;5021384;28;19929;-70
2022/10/12 03:01:38;;;;;;;;;;;;;;;16.90;75.31;100524.78;5021295;28;19988;-70
2022/10/12 03:04:04;;;;;;;;;;;;;;;16.93;75.72;100523.59;5023691;28;19967;-73
2022/10/12 03:06:29;;;;;;;;;;;;;;;16.93;75.32;100531.59;5023216;28;19914;-70
2022/10/12 03:08:56;;;;;;;;;;;;;;;16.89;75.78;100531.16;5022228;28;19929;-70
2022/10/12 03:11:21;;;;;;;;;;;;;;;16.90;75.74;100531.97;5022232;28;20216;-70
2022/10/12 03:13:47;;;;;;;;;;;;;;;16.94;75.76;100535.94;5021184;28;19976;-72
2022/10/12 03:16:12;;;;;;;;;;;;;;;16.95;75.90;100532.25;5021585;28;19917;-73
2022/10/12 03:18:37;;;;;;;;;;;;;;;16.97;75.97;100538.25;5022193;28;19932;-70
2022/10/12 03:21:03;;;;;;;;;;;;;;;16.95;75.14;100534.09;5021020;28;19987;-73
2022/10/12 03:23:28;;;;;;;;;;;;;;;16.89;75.23;100536.50;5021612;28;19926;-70
2022/10/12 03:25:53;;;;;;;;;;;;;;;16.90;75.67;100530.13;5021745;28;20084;-71
2022/10/12 03:28:19;;;;;;;;;;;;;;;16.89;75.90;100533.00;5021239;28;19976;-73
2022/10/12 03:30:44;;;;;;;;;;;;;;;16.82;76.21;100535.56;5022120;28;19932;-70
2022/10/12 03:33:10;;;;;;;;;;;;;;;16.82;76.66;100535.56;5021177;28;19989;-70
2022/10/12 03:35:35;;;;;;;;;;;;;;;16.91;76.81;100538.97;5020812;28;20246;-73
2022/10/12 03:38:01;;;;;;;;;;;;;;;16.92;76.29;100532.63;5021933;28;19996;-73
2022/10/12 03:40:26;;;;;;;;;;;;;;;16.88;76.35;100536.69;5020905;28;19928;-70
2022/10/12 03:42:51;;;;;;;;;;;;;;;16.82;76.93;100540.91;5021729;28;19917;-73
2022/10/12 03:45:16;;;;;;;;;;;;;;;16.78;78.04;100531.59;5024465;28;20221;-70
2022/10/12 03:47:42;;;;;;;;;;;;;;;16.83;77.71;100531.03;5021084;28;19928;-70
2022/10/12 03:50:07;;;;;;;;;;;;;;;16.78;77.38;100531.59;5020948;28;20322;-73
2022/10/12 03:52:32;;;;;;;;;;;;;;;16.82;77.36;100524.88;5020316;28;19951;-70
2022/10/12 03:54:58;;;;;;;;;;;;;;;16.84;77.38;100525.50;5024751;28;19921;-70
2022/10/12 03:57:23;;;;;;;;;;;;;;;16.73;77.59;100528.63;5024565;28;19988;-73
2022/10/12 03:59:48;;;;;;;;;;;;;;;16.58;78.57;100525.06;5024454;28;19928;-74
2022/10/12 04:02:13;;;;;;;;;;;;;;;16.49;78.98;100534.16;5024077;28;19956;-73
2022/10/12 04:04:39;;;;;;;;;;;;;;;16.59;79.42;100532.06;5024201;28;19944;-73
2022/10/12 04:07:04;;;;;;;;;;;;;;;16.70;78.63;100531.69;5024301;28;19921;-70
2022/10/12 04:09:29;;;;;;;;;;;;;;;16.77;78.08;100532.59;5023984;28;19988;-70
2022/10/12 04:11:54;;;;;;;;;;;;;;;16.68;78.50;100524.84;5024112;28;19921;-70
2022/10/12 04:14:20;;;;;;;;;;;;;;;16.55;79.38;100530.75;5024107;28;19921;-73
2022/10/12 04:16:45;;;;;;;;;;;;;;;16.48;79.63;100529.81;5037217;28;19913;-73
2022/10/12 04:19:11;;;;;;;;;;;;;;;16.49;80.04;100532.31;5036945;28;19945;-72
2022/10/12 04:21:36;;;;;;;;;;;;;;;16.56;79.66;100535.09;5025381;28;19928;-73
2022/10/12 04:24:02;;;;;;;;;;;;;;;16.61;79.82;100541.56;5035116;28;19929;-73
2022/10/12 04:26:27;;;;;;;;;;;;;;;16.69;79.42;100539.88;5023766;28;19921;-70
2022/10/12 04:28:52;;;;;;;;;;;;;;;16.72;78.06;100540.34;5023857;28;19913;-70
2022/10/12 04:31:17;;;;;;;;;;;;;;;16.81;78.11;100536.59;5023832;28;20230;-70
2022/10/12 04:33:43;;;;;;;;;;;;;;;16.98;77.62;100542.59;5023671;28;19918;-73
2022/10/12 04:36:09;;;;;;;;;;;;;;;16.97;77.20;100538.25;5023862;28;19917;-70
2022/10/12 04:38:35;;;;;;;;;;;;;;;16.79;77.84;100537.78;5023953;28;19913;-73
2022/10/12 04:41:00;;;;;;;;;;;;;;;16.80;77.74;100542.13;5023960;28;20229;-71
2022/10/12 04:43:25;;;;;;;;;;;;;;;16.70;78.79;100539.69;5022339;28;20226;-70
2022/10/12 04:45:57;;;;;;;;;;;;;;;16.75;78.11;100542.66;5023815;28;19988;-72
2022/10/12 04:48:23;;;;;;;;;;;;;;;16.82;78.18;100532.91;5023575;28;19955;-70
2022/10/12 04:50:49;;;;;;;;;;;;;;;16.75;78.91;100545.34;5023047;28;19991;-73
2022/10/12 04:53:14;;;;;;;;;;;;;;;16.65;79.62;100546.59;5023243;28;20221;-70
2022/10/12 04:55:39;;;;;;;;;;;;;;;16.58;79.46;100549.13;5023647;28;19913;-70
2022/10/12 04:58:05;;;;;;;;;;;;;;;16.59;78.80;100556.13;5023521;28;20253;-73
2022/10/12 05:00:30;;;;;;;;;;;;;;;16.68;78.55;100556.94;5023167;28;19963;-71
2022/10/12 05:02:55;;;;;;;;;;;;;;;16.76;78.32;100551.50;5023368;28;19929;-75
2022/10/12 05:05:20;;;;;;;;;;;;;;;16.82;77.69;100553.47;5023595;28;19984;-69
2022/10/12 05:07:46;;;;;;;;;;;;;;;16.84;77.67;100559.47;5023027;28;19917;-72
2022/10/12 05:10:11;;;;;;;;;;;;;;;16.84;76.68;100559.47;5023221;28;19917;-72
2022/10/12 05:12:36;;;;;;;;;;;;;;;16.91;77.16;100563.06;5021808;28;19917;-69
2022/10/12 05:15:02;;;;;;;;;;;;;;;16.97;76.05;100561.50;5021145;28;19917;-69
2022/10/12 05:17:27;;;;;;;;;;;;;;;16.89;77.09;100570.44;5020431;28;19925;-72
2022/10/12 05:19:52;;;;;;;;;;;;;;;16.89;77.48;100570.44;5018774;28;19933;-73
2022/10/12 05:22:18;;;;;;;;;;;;;;;16.88;77.73;100568.78;5020679;28;19917;-70
2022/10/12 05:24:43;;;;;;;;;;;;;;;16.92;77.53;100573.56;5021546;28;20251;-72
2022/10/12 05:27:08;;;;;;;;;;;;;;;16.88;78.47;100579.47;5020249;28;19947;-72
2022/10/12 05:29:33;;;;;;;;;;;;;;;16.91;77.65;100581.78;5019037;28;19922;-72
2022/10/12 05:31:59;;;;;;;;;;;;;;;16.97;76.79;100588.25;5021563;28;19917;-69
2022/10/12 05:34:24;;;;;;;;;;;;;;;17.02;76.54;100586.69;5020398;28;19922;-70
2022/10/12 05:36:49;;;;;;;;;;;;;;;17.07;76.04;100584.28;5021400;28;19980;-70
2022/10/12 05:39:14;;;;;;;;;;;;;;;17.12;75.74;100597.13;5021351;28;20208;-70
2022/10/12 05:41:40;;;;;;;;;;;;;;;17.14;76.10;100593.25;5019599;28;19917;-72
2022/10/12 05:44:05;;;;;;;;;;;;;;;17.13;76.06;100596.94;5018958;28;20303;-70
2022/10/12 05:46:31;;;;;;;;;;;;;;;17.20;75.81;100600.53;5019332;28;20203;-70
2022/10/12 05:48:56;;;;;;;;;;;;;;;17.26;75.20;100600.81;5019423;28;19933;-72
2022/10/12 05:51:21;;;;;;;;;;;;;;;17.22;75.67;100603.03;5017383;28;19956;-72
2022/10/12 05:53:46;;;;;;;;;;;;;;;17.25;75.21;100610.69;5019436;28;19945;-70
2022/10/12 05:56:12;;;;;;;;;;;;;;;17.28;74.88;100606.81;5019023;28;19917;-72
2022/10/12 05:58:37;;;;;;;;;;;;;;;17.29;74.07;100617.34;5019205;28;20187;-73
2022/10/12 06:01:03;;;;;;;;;;;;;;;17.32;74.16;100616.97;5019561;28;19925;-70
2022/10/12 06:03:28;;;;;;;;;;;;;;;17.38;74.19;100610.88;5019332;28;19921;-69
2022/10/12 06:05:54;;;;;;;;;;;;;;;17.40;73.61;100616.03;5018474;28;20390;-70
2022/10/12 06:08:19;;;;;;;;;;;;;;;17.45;73.18;100619.81;5018677;28;19925;-70
2022/10/12 06:10:46;;;;;;;;;;;;;;;17.47;73.28;100616.97;5019115;28;19976;-70
2022/10/12 06:13:11;;;;;;;;;;;;;;;17.53;73.71;100625.09;5018386;28;20183;-72
2022/10/12 06:15:36;;;;;;;;;;;;;;;17.53;73.39;100627.75;5023180;28;20207;-72
2022/10/12 06:18:02;;;;;;;;;;;;;;;17.59;73.92;100628.03;5018382;28;19921;-73
2022/10/12 06:20:27;;;;;;;;;;;;;;;17.55;74.01;100628.41;5018792;28;20421;-74
2022/10/12 06:22:52;;;;;;;;;;;;;;;17.59;74.16;100634.22;5018979;28;19926;-74
2022/10/12 06:25:17;;;;;;;;;;;;;;;17.60;73.49;100633.22;5019126;28;19936;-74
2022/10/12 06:27:46;;;;;;;;;;;;;;;17.46;72.94;100642.91;5018513;28;19918;-71
2022/10/12 06:30:12;;;;;;;;;;;;;;;17.38;72.92;100640.31;5019094;28;19932;-73
2022/10/12 06:32:37;;;;;;;;;;;;;;;17.44;73.13;100646.78;5019587;28;19926;-71
2022/10/12 06:35:03;;;;;;;;;;;;;;;17.37;72.57;100645.84;5018682;28;19921;-71
2022/10/12 06:37:29;;;;;;;;;;;;;;;17.31;72.03;100649.28;5019502;28;19917;-70
2022/10/12 06:39:54;;;;;;;;;;;;;;;17.36;71.87;100650.38;5018639;28;20216;-73
2022/10/12 06:42:19;;;;;;;;;;;;;;;17.44;69.90;100658.31;5021344;28;19925;-74
2022/10/12 06:44:45;;;;;;;;;;;;;;;17.33;70.25;100653.44;5005098;28;19922;-71
2022/10/12 06:47:10;;;;;;;;;;;;;;;17.31;70.85;100646.59;5004885;28;20014;-71
2022/10/12 06:49:36;;;;;;;;;;;;;;;17.55;69.87;100655.19;5018427;28;20166;-71
2022/10/12 06:52:01;;;;;;;;;;;;;;;17.52;70.28;100660.91;5020841;28;19925;-73
2022/10/12 06:54:26;;;;;;;;;;;;;;;17.52;70.21;100660.06;5020965;28;19978;-70
2022/10/12 06:56:51;;;;;;;;;;;;;;;17.65;70.12;100659.44;5022038;28;20254;-73
2022/10/12 06:59:18;;;;;;;;;;;;;;;17.75;69.40;100657.34;5020667;28;19968;-70
2022/10/12 07:01:43;;;;;;;;;;;;;;;17.80;69.20;100657.63;5020647;28;19917;-74
2022/10/12 07:04:08;;;;;;;;;;;;;;;17.76;70.12;100664.38;5020956;28;19944;-71
2022/10/12 07:06:34;;;;;;;;;;;;;;;17.82;70.26;100664.47;5021524;28;19940;-70
2022/10/12 07:09:00;;;;;;;;;;;;;;;17.77;69.69;100666.03;5019325;28;19929;-74
2022/10/12 07:11:25;;;;;;;;;;;;;;;17.89;68.82;100669.91;5020407;28;20218;-71
2022/10/12 07:13:50;;;;;;;;;;;;;;;18.02;67.21;100658.50;5020955;28;19940;-74
2022/10/12 07:16:15;;;;;;;;;;;;;;;18.07;67.59;100664.13;5020536;28;19972;-71
2022/10/12 07:18:41;;;;;;;;;;;;;;;18.18;67.00;100669.84;5020355;28;19917;-71
2022/10/12 07:21:06;;;;;;;;;;;;;;;18.28;66.32;100669.53;5020693;28;19921;-73
2022/10/12 07:23:32;;;;;;;;;;;;;;;18.40;64.19;100673.38;5017247;28;19989;-71
2022/10/12 07:25:58;;;;;;;;;;;;;;;18.40;64.40;100672.56;5020497;28;19922;-74
2022/10/12 07:28:24;;;;;;;;;;;;;;;18.46;64.46;100671.78;5020691;28;19926;-71
2022/10/12 07:30:49;;;;;;;;;;;;;;;18.49;64.78;100672.22;5019860;28;21282;-73
2022/10/12 07:33:14;;;;;;;;;;;;;;;18.60;64.31;100667.38;5019072;28;19937;-73
2022/10/12 07:35:40;;;;;;;;;;;;;;;18.62;63.37;100673.41;5021241;28;19929;-71
2022/10/12 07:38:05;;;;;;;;;;;;;;;18.55;63.78;100665.28;5020082;28;19917;-74
2022/10/12 07:40:31;;;;;;;;;;;;;;;18.44;64.54;100676.50;5020492;28;19922;-72
2022/10/12 07:42:57;;;;;;;;;;;;;;;18.43;63.74;100683.72;5019470;28;20084;-71
2022/10/12 07:45:22;;;;;;;;;;;;;;;18.38;63.72;100675.41;5020167;28;19956;-73
2022/10/12 07:47:47;;;;;;;;;;;;;;;18.51;63.49;100678.25;5019537;28;19932;-71
2022/10/12 07:50:13;;;;;;;;;;;;;;;18.66;63.05;100672.84;5019450;28;19944;-71
2022/10/12 07:52:39;;;;;;;;;;;;;;;18.71;62.91;100673.09;5020400;28;19961;-74
2022/10/12 07:55:04;;;;;;;;;;;;;;;18.85;62.09;100670.56;5019847;28;19929;-71
2022/10/12 07:57:29;;;;;;;;;;;;;;;18.70;62.38;100663.38;5018937;28;19956;-70
2022/10/12 07:59:55;;;;;;;;;;;;;;;18.74;62.26;100666.53;5018209;28;19933;-71
2022/10/12 08:02:20;;;;;;;;;;;;;;;18.71;62.36;100667.72;5020681;28;19982;-71
2022/10/12 08:04:45;;;;;;;;;;;;;;;18.89;61.93;100667.31;5019431;28;19922;-71
2022/10/12 08:07:11;;;;;;;;;;;;;;;18.96;61.77;100662.81;5018690;28;19917;-74
2022/10/12 08:09:36;;;;;;;;;;;;;;;18.99;60.93;100666.97;5020132;28;19929;-73
2022/10/12 08:12:02;;;;;;;;;;;;;;;18.89;61.45;100661.09;5019113;28;20262;-73
2022/10/12 08:14:27;;;;;;;;;;;;;;;19.06;61.08;100668.69;5019871;28;19930;-70
2022/10/12 08:16:53;;;;;;;;;;;;;;;18.90;61.96;100660.91;5019355;28;19932;-74
2022/10/12 08:19:18;;;;;;;;;;;;;;;19.04;61.72;100668.03;5019120;28;20123;-71
2022/10/12 08:21:43;;;;;;;;;;;;;;;18.86;60.54;100666.84;5020313;28;19917;-71
2022/10/12 08:24:09;;;;;;;;;;;;;;;18.71;61.23;100664.22;5018753;28;20170;-71
2022/10/12 08:26:35;;;;;;;;;;;;;;;18.69;61.55;100668.94;5019849;28;19980;-74
2022/10/12 08:29:01;;;;;;;;;;;;;;;18.60;62.22;100668.22;5019109;28;20230;-71
2022/10/12 08:31:26;;;;;;;;;;;;;;;18.42;62.53;100671.34;5019121;28;19963;-71
2022/10/12 08:33:51;;;;;;;;;;;;;;;18.74;62.81;100666.53;5019333;28;19941;-71
2022/10/12 08:36:16;;;;;;;;;;;;;;;19.08;61.19;100663.94;5019668;28;19975;-72
2022/10/12 08:38:42;;;;;;;;;;;;;;;19.32;60.27;100668.03;5018908;28;19926;-74
2022/10/12 08:41:11;;;;;;;;;;;;;;;19.23;61.31;100666.53;5018774;28;20212;-72
2022/10/12 08:43:39;;;;;;;;;;;;;;;19.57;59.93;100667.59;5018204;28;19917;-75
2022/10/12 08:46:04;;;;;;;;;;;;;;;19.88;58.57;100668.00;5019191;28;19992;-75
2022/10/12 08:48:33;;;;;;;;;;;;;;;19.97;57.44;100663.28;5018836;28;19925;-75
2022/10/12 08:51:01;;;;;;;;;;;;;;;19.92;57.64;100669.25;5019013;28;19968;-75
2022/10/12 08:53:30;;;;;;;;;;;;;;;20.04;57.70;100661.44;5019109;28;19918;-75
2022/10/12 08:55:55;;;;;;;;;;;;;;;19.99;57.22;100658.53;5019196;28;19936;-72
2022/10/12 08:58:31;;;;;;;;;;;;;;;20.09;57.51;100662.50;5018800;28;19918;-74
2022/10/12 09:00:58;;;;;;;;;;;;;;;20.05;56.77;100663.09;5017632;28;19933;-72
2022/10/12 09:03:41;;;;;;;;;;;;;;;19.82;57.51;100665.28;5017896;28;20405;-72
2022/10/12 09:06:10;;;;;;;;;;;;;;;19.71;57.94;100653.19;5017530;28;19936;-75
2022/10/12 09:08:54;;;;;;;;;;;;;;;19.93;57.06;100662.00;5018817;28;20124;-75
2022/10/12 09:11:27;;;;;;;;;;;;;;;19.83;56.82;100664.25;5018130;28;20113;-75
2022/10/12 09:14:04;;;;;;;;;;;;;;;20.03;55.27;100657.91;5018690;28;19917;-72
2022/10/12 09:16:31;;;;;;;;;;;;;;;19.94;55.14;100652.91;5018640;28;19913;-72
2022/10/12 09:19:08;;;;;;;;;;;;;;;20.09;55.15;100661.66;5017789;28;19933;-72
2022/10/12 09:21:34;;;;;;;;;;;;;;;20.08;55.21;100660.00;5020339;28;20127;-75
2022/10/12 09:24:00;;;;;;;;;;;;;;;19.97;55.51;100663.28;5018131;28;19921;-72
2022/10/12 09:26:35;;;;;;;;;;;;;;;19.98;56.47;100659.53;5018197;28;19925;-76
2022/10/12 09:29:02;;;;;;;;;;;;;;;20.00;56.48;100658.31;5032588;28;19963;-72
2022/10/12 09:31:30;;;;;;;;;;;;;;;20.18;55.67;100659.63;5018968;28;19943;-75
2022/10/12 09:33:56;;;;;;;;;;;;;;;20.29;55.43;100661.72;5013855;28;20215;-76
2022/10/12 09:36:23;;;;;;;;;;;;;;;20.12;55.55;100655.88;5030782;28;19934;-74
2022/10/12 09:38:48;;;;;;;;;;;;;;;20.19;54.86;100655.91;5018497;28;19917;-72
2022/10/12 09:41:40;;;;;;;;;;;;;;;20.37;53.75;100656.97;5018283;28;19981;-72
2022/10/12 09:44:09;;;;;;;;;;;;;;;20.54;50.20;100649.38;5031346;28;19953;-75
2022/10/12 09:46:35;;;;;;;;;;;;;;;20.64;50.80;100654.34;5016854;28;19924;-75
2022/10/12 09:49:00;;;;;;;;;;;;;;;20.59;50.89;100656.84;5016821;28;19921;-76
2022/10/12 09:51:27;;;;;;;;;;;;;;;20.92;50.63;100656.88;5030896;28;19936;-75
2022/10/12 09:53:53;;;;;;;;;;;;;;;20.85;49.51;100648.81;5017836;28;19917;-72
2022/10/12 09:56:23;;;;;;;;;;;;;;;20.65;51.35;100650.63;5017944;28;19924;-72
2022/10/12 09:58:52;;;;;;;;;;;;;;;20.71;52.24;100639.88;5018568;28;19926;-75
2022/10/12 10:01:25;;;;;;;;;;;;;;;20.69;51.03;100641.13;5018048;28;19917;-72
2022/10/12 10:04:09;;;;;;;;;;;;;;;20.86;50.86;100637.00;5017677;28;19918;-76
2022/10/12 10:06:36;;;;;;;;;;;;;;;20.64;50.91;100640.91;5029793;28;20219;-75
2022/10/12 10:09:01;;;;;;;;;;;;;;;20.67;51.19;100635.94;5017778;28;20112;-75
2022/10/12 10:11:30;;;;;;;;;;;;;;;20.61;51.57;100628.69;5018368;28;19951;-76
2022/10/12 10:13:56;;;;;;;;;;;;;;;20.73;51.15;100629.72;5017473;28;19918;-75
2022/10/12 10:16:23;;;;;;;;;;;;;;;20.85;51.12;100629.13;5019647;28;19971;-75
2022/10/12 10:18:54;;;;;;;;;;;;;;;20.87;51.38;100625.19;5018280;28;19933;-72
2022/10/12 10:21:28;;;;;;;;;;;;;;;21.08;50.38;100629.53;5021484;28;19980;-75
2022/10/12 10:23:58;;;;;;;;;;;;;;;21.03;50.42;100619.38;5021324;28;19917;-75
2022/10/12 10:26:25;;;;;;;;;;;;;;;21.12;49.96;100620.00;5021392;28;19921;-72
2022/10/12 10:29:14;;;;;;;;;;;;;;;21.16;49.77;100613.16;5021133;28;19918;-74
2022/10/12 10:31:40;;;;;;;;;;;;;;;20.86;50.47;100611.94;5021171;28;20088;-72
2022/10/12 10:34:11;;;;;;;;;;;;;;;20.85;50.60;100599.53;5021365;28;19939;-75
2022/10/12 10:36:38;;;;;;;;;;;;;;;20.87;50.98;100602.84;5021800;28;19949;-72
2022/10/12 10:39:05;;;;;;;;;;;;;;;20.80;51.05;100602.81;5021205;28;20207;-72
2022/10/12 10:41:34;;;;;;;;;;;;;;;20.65;51.40;100599.50;5019202;28;19917;-75
2022/10/12 10:44:00;;;;;;;;;;;;;;;20.63;52.23;100597.03;5020912;28;19921;-72
2022/10/12 10:46:29;;;;;;;;;;;;;;;20.83;52.03;100590.84;5021801;28;19921;-72
2022/10/12 10:49:00;;;;;;;;;;;;;;;20.42;51.97;100582.94;5020709;28;20115;-72
2022/10/12 10:52:01;;;;;;;;;;;;;;;20.24;52.48;100591.56;5020918;28;20134;-75
2022/10/12 10:54:30;;;;;;;;;;;;;;;20.52;52.40;100586.03;5011934;28;19930;-71
2022/10/12 10:57:01;;;;;;;;;;;;;;;20.65;51.75;100584.19;5015101;28;20123;-75
2022/10/12 10:59:35;;;;;;;;;;;;;;;20.89;50.86;100585.44;5020015;28;19944;-75
2022/10/12 11:02:03;;;;;;;;;;;;;;;21.07;49.79;100579.41;5021063;28;20105;-73
2022/10/12 11:04:31;;;;;;;;;;;;;;;21.12;51.27;100579.59;5021247;28;20123;-75
2022/10/12 11:07:00;;;;;;;;;;;;;;;21.24;50.19;100569.88;5020491;28;20207;-75
2022/10/12 11:09:36;;;;;;;;;;;;;;;21.43;49.31;100570.00;5019358;28;19921;-72
2022/10/12 11:12:05;;;;;;;;;;;;;;;21.49;49.34;100564.59;5020506;28;19918;-72
2022/10/12 11:14:35;;;;;;;;;;;;;;;21.33;48.43;100565.06;5021085;28;19928;-76
2022/10/12 11:17:04;;;;;;;;;;;;;;;21.11;49.29;100560.97;5020461;28;19917;-75
2022/10/12 11:19:32;;;;;;;;;;;;;;;21.12;50.10;100555.38;5020065;28;20176;-75
2022/10/12 11:22:01;;;;;;;;;;;;;;;20.96;50.46;100559.34;5020431;28;19917;-72
2022/10/12 11:24:32;;;;;;;;;;;;;;;21.20;49.83;100552.44;5020711;28;19941;-76
2022/10/12 11:27:04;;;;;;;;;;;;;;;21.42;49.44;100554.88;5020046;28;19992;-72
2022/10/12 11:29:29;;;;;;;;;;;;;;;21.54;48.43;100548.63;5020355;28;19960;-72
2022/10/12 11:31:55;;;;;;;;;;;;;;;21.39;49.67;100549.94;5020600;28;20135;-72
2022/10/12 11:34:22;;;;;;;;;;;;;;;21.53;49.37;100543.44;5020811;28;20274;-72
2022/10/12 11:36:49;;;;;;;;;;;;;;;21.46;49.50;100542.66;5020036;28;20004;-75
2022/10/12 11:39:21;;;;;;;;;;;;;;;21.52;48.83;100539.09;5020095;28;19935;-76
2022/10/12 11:41:52;;;;;;;;;;;;;;;21.26;50.06;100545.41;5019847;28;19949;-72
2022/10/12 11:44:24;;;;;;;;;;;;;;;21.54;48.74;100535.16;5020400;28;19929;-75
2022/10/12 11:47:09;;;;;;;;;;;;;;;21.10;49.95;100540.47;5020415;28;19932;-72
2022/10/12 11:49:43;;;;;;;;;;;;;;;21.27;49.64;100529.03;5020745;28;19929;-75
2022/10/12 11:52:09;;;;;;;;;;;;;;;21.05;50.79;100533.00;5020369;28;19932;-75
2022/10/12 11:54:38;;;;;;;;;;;;;;;21.01;51.02;100524.53;5019539;28;19985;-72
2022/10/12 11:57:07;;;;;;;;;;;;;;;20.83;50.50;100531.63;5019796;28;19924;-73
2022/10/12 11:59:52;;;;;;;;;;;;;;;21.07;50.07;100528.25;5020201;28;20230;-72
2022/10/12 12:02:20;;;;;;;;;;;;;;;21.06;49.93;100531.97;5020265;28;19917;-75
2022/10/12 12:04:46;;;;;;;;;;;;;;;20.73;51.38;100537.41;5019190;28;20123;-75
2022/10/12 12:07:30;;;;;;;;;;;;;;;20.66;52.07;100526.63;5019693;28;19952;-72
2022/10/12 12:09:55;;;;;;;;;;;;;;;20.92;51.93;100522.28;5019189;28;19921;-75
2022/10/12 12:12:27;;;;;;;;;;;;;;;21.08;51.11;100521.00;5019374;28;20115;-75
2022/10/12 12:14:53;;;;;;;;;;;;;;;20.96;50.93;100513.56;5019644;28;19922;-75
2022/10/12 12:17:18;;;;;;;;;;;;;;;21.29;50.03;100518.88;5014819;28;19948;-72
2022/10/12 12:19:43;;;;;;;;;;;;;;;20.86;51.19;100512.34;5019751;28;19928;-72
2022/10/12 12:22:18;;;;;;;;;;;;;;;21.12;49.41;100512.28;5019504;28;20211;-75
2022/10/12 12:24:52;;;;;;;;;;;;;;;21.13;49.23;100507.72;5019314;28;20065;-73
2022/10/12 12:27:20;;;;;;;;;;;;;;;20.91;50.27;100509.84;5019014;28;19925;-75
2022/10/12 12:29:49;;;;;;;;;;;;;;;20.91;49.69;100513.38;5018969;28;19928;-72
2022/10/12 12:32:15;;;;;;;;;;;;;;;20.81;49.58;100501.38;5019035;28;19925;-75
2022/10/12 12:34:46;;;;;;;;;;;;;;;20.73;50.30;100510.47;5019316;28;19930;-75
2022/10/12 12:37:20;;;;;;;;;;;;;;;20.66;49.74;100509.66;5019413;28;20106;-75